Wednesday, September 03, 2014
02:16 UTC
  |  Log In   |  Register Free
Airport Search:

Enterprise Municipal Airport
(KEDN)

Enterprise Municipal Airport Diagram
No Airport Diagram Available

FAA data valid effective July 24, 2014 until September 18, 2014 (unless otherwise noted).

 
 
 
 
 
 
 
 
 
 
 
 
 
 

Current Aviation Weather for Enterprise Municipal Airport (KEDN)

The most recent METAR observation for KLOR was updated at: 2353 UTC
METAR Summary (Translated METAR)
KLOR
022353Z AUTO 32003KT 10SM SCT070 29/22 A2997 RMK AO2 RAB20E29 SLP147 P0000 60000 T02890217 10367 20283 53005 TSNO $
KOZR
(5.2 nm SE from KLOR)
022358Z AUTO 25006KT 10SM CLR 28/23 A2999 RMK AO2 TSE2305B2312E2327 SLP155 T02840230 10362 20284 53005 RVRNO $
TAF Summary (Translated TAF)
KOZR
(5.2 nm SE from KLOR)
0300/0406 26004KT 9000 -SHRA BKN045 QNH3000INS BECMG 0302/0303 26006KT 9999 NSW SCT040 QNH3003INS TEMPO 0320/0401 VRB15G20KT 6000 -TSRA OVC035CB BECMG 0405/0406 VRB06KT 8000 BR FEW016 QNH3001INS TX32/0318Z TN24/0406Z
KDHN
(15.6 nm SE from KLOR)
021727Z 0218/0318 07004KT P6SM SCT040 FM030000 24003KT P6SM FEW250 FM031400 04005KT P6SM FEW030
  Airport Weather Conditions for KEDN

Current weather conditions are
not available for EDN


The nearest NOAA weather station
is at LOR, (8.3 nm NE from EDN)
  
 Current Weather at LOR
80° F
Fair
North winds at 0.0 mph
LOR NOAA Radar

Pressure: 30.02 in
Humidity: 76%
Wind: Calm
Dew Point: 72.0°F
Visibility: 10.00 mi


Airport Weather Forecast for KEDN

Translated METAR and TAF for KLOR
Translated METAR for KLOR (0210 UTC 03 September 2014)
found at http://aviationweather.gov/adds/metars/
 
METAR text: KLOR 030153Z AUTO 00000KT 10SM CLR 27/22 A3002 RMK AO2 SLP161 T02670222 TSNO $
Conditions at: KLOR (LOWE AHP/FT. RUC, AL, US) observed 0153 UTC 03 September 2014
Temperature: 26.7°C (80°F)
Dewpoint: 22.2°C (72°F) [RH = 76%]
Pressure (altimeter): 30.02 inches Hg (1016.7 mb)
[Sea-level pressure: 1016.1 mb]
Winds: calm
Visibility: 10 or more miles (16+ km)
Ceiling: at least 12,000 feet AGL
Clouds: sky clear below 12,000 feet AGL
Weather:
SOME DATA ABOVE MAY BE INACCURATE!!!
"$" is an indication the sensor requires maintenance
Translated TAF for KLOR

There is no translated TAF available for this airport

Find All Airport Services Find A Hotel Find A Rental Car Find A Golf Course Find A Restaurant $100 Hamburger



FBO's on the Field
FBO Company Facility Photos Services Transportation Aviation Fuel Prices: Prices include tax
Catering Weather Repair Courtesy Rental Type 100LL JetA JetA+ MOGAS 8087
 
Enterprise Municipal Airport

This FBO has not yet been rated
FS:Epic
Last Updated: Aug-20
Login to update fuel prices
SS:
Contact Enterprise Municipal AirportMore FBO Information
 
Add another FBO Facility Photos Catering Weather Repair Courtesy Rental Type 100LL JetA JetA+ MOGAS 8087
Services Transportation Aviation Fuel Prices: Prices include tax


GlobalAir.com Airport Resource Center model-print
model-print
model-print
model-print